Terminal Aerodrome Forecast
Issued by NWS Pittsburgh, PA

Current Version | Previous Version | Text Only | Print | Product List | Glossary Off
Versions: 1 2 3 4 5 6 7 8 9 10 11 12 13 14 15 16 17 18 19 20 21 22 23 24 25 26 27 28 29

000
FTUS41 KPBZ 201730
TAFPIT
TAF
KPIT 201730Z 2018/2124 27011G18KT P6SM SCT090
     FM202300 27007KT P6SM SCT250
     FM211000 22004KT P6SM BKN090
     FM211600 26010G16KT P6SM BKN100
     FM211700 27011G18KT P6SM BKN050=

USA.gov is the U.S. government's official web portal to all federal, state and local government web resources and services.